Terminal Aerodrome Forecast
Issued by NWS

Home | Current Version | Previous Version | Text Only | Print | Product List | Glossary On
Versions: 1 2 3 4 5 6 7 8 9 10 11 12 13 14 15 16
000
FTUS45 KPIH 230500
TAFSUN
TAF
KSUN 230520Z 2306/2406 VRB05KT P6SM VCSH SCT015 BKN050
     FM230800 31008KT P6SM FEW040 SCT120
     FM231500 VRB05KT P6SM VCSH BKN035 BKN120
     FM231800 15008KT P6SM -SHRA VCTS BKN040CB BKN130
     FM232100 VRB05KT P6SM -SHRA VCTS SCT040CB BKN070 OVC130
      AMD LTD TO CLD VIS AND WIND TIL 231300=

USA.gov is the U.S. government's official web portal to all federal, state and local government web resources and services.